createdAt,value
2018-10-05T00:00:41.139Z,83.57
2018-10-05T00:03:11.349Z,82.76
2018-10-05T00:05:41.645Z,82.94
2018-10-05T00:08:12.052Z,83.98
2018-10-05T00:10:43.160Z,85.53
2018-10-05T00:13:15.363Z,85.04
2018-10-05T00:15:47.621Z,84.09
2018-10-05T00:18:23.000Z,85.39
2018-10-05T00:20:54.232Z,85.18
2018-10-05T00:23:24.784Z,85.52
2018-10-05T00:25:54.863Z,85.50
2018-10-05T00:28:25.719Z,85.91
2018-10-05T00:30:55.803Z,85.28
2018-10-05T00:33:30.419Z,84.94
2018-10-05T00:36:00.166Z,84.52
2018-10-05T00:38:30.217Z,84.89
2018-10-05T00:41:00.707Z,85.01
2018-10-05T00:43:30.349Z,84.49
2018-10-05T00:45:59.574Z,83.14
2018-10-05T00:48:28.386Z,83.11
2018-10-05T00:50:57.319Z,83.59
2018-10-05T00:53:26.790Z,84.19
2018-10-05T00:55:56.429Z,83.94
2018-10-05T00:58:25.248Z,84.42
2018-10-05T01:00:54.370Z,85.22
2018-10-05T01:03:23.269Z,85.84
2018-10-05T01:05:52.021Z,85.32
2018-10-05T01:08:23.369Z,84.26
2018-10-05T01:10:54.173Z,84.05
2018-10-05T01:13:25.246Z,84.26
2018-10-05T01:15:55.717Z,85.06
2018-10-05T01:18:26.775Z,84.89
2018-10-05T01:20:59.581Z,85.61
2018-10-05T01:23:30.890Z,86.21
2018-10-05T01:26:01.480Z,85.73
2018-10-05T01:28:31.396Z,85.99
2018-10-05T01:31:02.363Z,86.09
2018-10-05T01:33:33.555Z,85.16
2018-10-05T01:36:04.290Z,85.56
2018-10-05T01:38:35.568Z,85.28
2018-10-05T01:41:05.731Z,85.48
2018-10-05T01:43:35.733Z,85.61
2018-10-05T01:46:04.850Z,86.00
2018-10-05T01:48:33.881Z,86.02
2018-10-05T01:51:02.739Z,86.38
2018-10-05T01:53:32.294Z,85.97
2018-10-05T01:56:01.179Z,85.06
2018-10-05T01:58:29.976Z,84.56
2018-10-05T02:00:59.310Z,85.75
2018-10-05T02:03:28.857Z,87.00
2018-10-05T02:05:57.640Z,87.38
2018-10-05T02:08:26.394Z,86.99
2018-10-05T02:10:55.909Z,87.07
2018-10-05T02:13:25.340Z,85.36
2018-10-05T02:15:55.168Z,84.60
2018-10-05T02:18:25.623Z,84.86
2018-10-05T02:20:55.704Z,84.72
2018-10-05T02:23:27.855Z,84.84
2018-10-05T02:25:58.907Z,84.62
2018-10-05T02:28:29.674Z,87.00
2018-10-05T02:31:00.100Z,87.39
2018-10-05T02:33:31.159Z,88.14
2018-10-05T02:36:01.649Z,88.11
2018-10-05T02:38:32.074Z,88.24
2018-10-05T02:41:03.976Z,87.70
2018-10-05T02:43:34.253Z,87.81
2018-10-05T02:46:05.579Z,88.24
2018-10-05T02:48:36.520Z,87.67
2018-10-05T02:51:06.581Z,87.17
2018-10-05T02:53:36.865Z,86.55
2018-10-05T02:56:05.360Z,85.72
2018-10-05T02:58:33.987Z,85.44
2018-10-05T03:01:13.865Z,85.98
2018-10-05T03:03:44.763Z,85.93
2018-10-05T03:06:13.808Z,86.79
2018-10-05T03:08:42.343Z,87.61
2018-10-05T03:11:11.006Z,87.71
2018-10-05T03:13:39.714Z,87.38
2018-10-05T03:16:08.520Z,87.62
2018-10-05T03:18:37.255Z,87.40
2018-10-05T03:21:06.567Z,87.54
2018-10-05T03:23:35.176Z,86.98
2018-10-05T03:26:03.724Z,86.63
2018-10-05T03:28:32.492Z,85.84
2018-10-05T03:31:01.867Z,85.47
2018-10-05T03:33:30.321Z,87.05
2018-10-05T03:35:59.437Z,86.91
2018-10-05T03:38:28.891Z,87.13
2018-10-05T03:40:57.633Z,86.94
2018-10-05T03:43:26.113Z,87.04
2018-10-05T03:45:54.543Z,87.26
2018-10-05T03:48:23.669Z,87.27
2018-10-05T03:50:52.903Z,86.79
2018-10-05T03:53:22.270Z,86.62
2018-10-05T03:55:51.107Z,86.75
2018-10-05T03:58:19.851Z,86.50
2018-10-05T04:00:49.016Z,85.29
2018-10-05T04:03:18.203Z,83.89
2018-10-05T04:05:47.869Z,83.83
2018-10-05T04:08:17.091Z,86.28
2018-10-05T04:10:46.101Z,87.27
2018-10-05T04:13:15.575Z,87.45
2018-10-05T04:15:44.414Z,88.37
2018-10-05T04:18:13.772Z,88.42
2018-10-05T04:20:43.647Z,88.36
2018-10-05T04:23:12.595Z,88.04
2018-10-05T04:25:41.607Z,88.00
2018-10-05T04:28:11.613Z,87.55
2018-10-05T04:30:40.904Z,87.45
2018-10-05T04:33:10.216Z,87.14
2018-10-05T04:35:39.296Z,87.36
2018-10-05T04:38:08.322Z,87.95
2018-10-05T04:40:37.988Z,88.18
2018-10-05T04:43:07.620Z,88.49
2018-10-05T04:45:36.285Z,88.44
2018-10-05T04:48:04.738Z,88.45
2018-10-05T04:50:33.539Z,87.19
2018-10-05T04:53:02.449Z,86.03
2018-10-05T04:55:30.928Z,85.76
2018-10-05T04:58:00.133Z,85.87
2018-10-05T05:00:29.516Z,86.39
2018-10-05T05:02:59.165Z,86.37
2018-10-05T05:05:28.163Z,85.80
2018-10-05T05:07:57.528Z,85.36
2018-10-05T05:10:26.449Z,85.45
2018-10-05T05:12:55.510Z,84.95
2018-10-05T05:15:24.261Z,84.59
2018-10-05T05:17:54.113Z,85.45
2018-10-05T05:20:23.509Z,86.81
2018-10-05T05:22:51.952Z,87.10
2018-10-05T05:25:20.437Z,87.39
2018-10-05T05:27:48.873Z,87.46
2018-10-05T05:30:18.096Z,87.64
2018-10-05T05:32:46.537Z,87.44
2018-10-05T05:35:15.788Z,87.49
2018-10-05T05:37:45.055Z,87.22
2018-10-05T05:40:15.311Z,87.17
2018-10-05T05:42:43.978Z,88.18
2018-10-05T05:45:13.481Z,88.17
2018-10-05T05:47:42.557Z,87.54
2018-10-05T05:50:11.263Z,86.80
2018-10-05T05:52:40.936Z,87.30
2018-10-05T05:55:10.049Z,88.40
2018-10-05T05:57:39.238Z,88.39
2018-10-05T06:00:08.379Z,88.67
2018-10-05T06:02:37.556Z,89.04
2018-10-05T06:05:06.392Z,88.81
2018-10-05T06:07:34.845Z,88.74
2018-10-05T06:10:04.142Z,88.87
2018-10-05T06:12:32.830Z,88.70
2018-10-05T06:15:02.502Z,88.60
2018-10-05T06:17:31.373Z,87.91
2018-10-05T06:20:01.191Z,87.86
2018-10-05T06:22:29.960Z,87.98
2018-10-05T06:24:59.389Z,87.22
2018-10-05T06:27:28.343Z,86.86
2018-10-05T06:29:58.083Z,86.26
2018-10-05T06:32:27.157Z,86.18
2018-10-05T06:34:55.985Z,85.74
2018-10-05T06:37:28.295Z,86.09
2018-10-05T06:39:57.864Z,86.21
2018-10-05T06:42:28.327Z,86.19
2018-10-05T06:44:57.965Z,86.17
2018-10-05T06:47:26.900Z,86.47
2018-10-05T06:49:57.267Z,87.05
2018-10-05T06:52:26.443Z,86.63
2018-10-05T06:54:54.861Z,86.76
2018-10-05T06:57:24.408Z,86.77
2018-10-05T06:59:53.175Z,86.71
2018-10-05T07:02:22.645Z,86.29
2018-10-05T07:04:51.086Z,86.28
2018-10-05T07:07:19.680Z,86.80
2018-10-05T07:09:49.490Z,87.15
2018-10-05T07:12:18.445Z,87.84
2018-10-05T07:14:47.553Z,87.93
2018-10-05T07:17:16.024Z,87.92
2018-10-05T07:19:44.948Z,88.30
2018-10-05T07:22:13.688Z,88.48
2018-10-05T07:24:42.687Z,88.31
2018-10-05T07:27:11.973Z,88.31
2018-10-05T07:29:41.731Z,88.48
2018-10-05T07:32:11.408Z,88.20
2018-10-05T07:34:40.624Z,88.00
2018-10-05T07:37:10.008Z,87.83
2018-10-05T07:39:39.285Z,88.01
2018-10-05T07:42:08.538Z,88.44
2018-10-05T07:44:37.388Z,88.51
2018-10-05T07:47:07.093Z,88.42
2018-10-05T07:49:35.797Z,88.43
2018-10-05T07:52:05.156Z,88.36
2018-10-05T07:54:33.815Z,87.82
2018-10-05T07:57:04.679Z,88.02
2018-10-05T07:59:33.780Z,87.86
2018-10-05T08:02:03.164Z,88.41
2018-10-05T08:04:32.217Z,87.54
2018-10-05T08:07:01.204Z,87.66
2018-10-05T08:09:30.785Z,87.43
2018-10-05T08:12:00.293Z,86.48
2018-10-05T08:14:28.966Z,85.42
2018-10-05T08:16:58.274Z,85.02
2018-10-05T08:19:26.943Z,84.65
2018-10-05T08:21:56.777Z,84.41
2018-10-05T08:24:26.115Z,83.21
2018-10-05T08:26:55.446Z,82.25
2018-10-05T08:29:24.440Z,82.00
2018-10-05T08:31:53.595Z,81.71
2018-10-05T08:34:22.438Z,80.01
2018-10-05T08:36:51.509Z,80.29
2018-10-05T08:39:19.995Z,78.72
2018-10-05T08:41:48.864Z,77.47
2018-10-05T08:44:17.837Z,76.37
2018-10-05T08:46:46.772Z,74.79
2018-10-05T08:49:16.116Z,73.36
2018-10-05T08:51:45.978Z,71.00
2018-10-05T08:54:14.813Z,69.23
2018-10-05T08:56:43.809Z,67.46
2018-10-05T08:59:12.258Z,67.01
2018-10-05T09:01:41.662Z,66.61
2018-10-05T09:04:10.729Z,65.35
2018-10-05T09:06:39.746Z,65.18
2018-10-05T09:09:09.028Z,64.18
2018-10-05T09:11:38.187Z,62.82
2018-10-05T09:14:07.656Z,62.79
2018-10-05T09:16:36.839Z,61.76
2018-10-05T09:19:05.673Z,60.50
2018-10-05T09:21:34.612Z,60.67
2018-10-05T09:24:05.243Z,60.21
2018-10-05T09:26:34.245Z,60.13
2018-10-05T09:29:03.572Z,59.64
2018-10-05T09:31:32.934Z,58.44
2018-10-05T09:34:02.438Z,58.06
2018-10-05T09:36:31.313Z,57.47
2018-10-05T09:39:00.306Z,56.73
2018-10-05T09:41:29.609Z,55.60
2018-10-05T09:43:59.777Z,55.71
2018-10-05T09:46:29.875Z,55.40
2018-10-05T09:48:58.854Z,56.25
2018-10-05T09:51:28.046Z,55.05
2018-10-05T09:53:57.142Z,53.66
2018-10-05T09:56:26.241Z,54.72
2018-10-05T09:58:55.630Z,55.13
2018-10-05T10:01:30.569Z,54.00
2018-10-05T10:03:59.737Z,52.94
2018-10-05T10:06:29.796Z,52.69
2018-10-05T10:08:58.603Z,52.73
2018-10-05T10:11:27.593Z,52.93
2018-10-05T10:13:56.340Z,52.37
2018-10-05T10:16:25.198Z,52.72
2018-10-05T10:18:55.743Z,51.22
2018-10-05T10:21:24.196Z,50.85
2018-10-05T10:23:53.650Z,50.56
2018-10-05T10:26:22.834Z,50.55
2018-10-05T10:28:51.428Z,50.74
2018-10-05T10:31:19.710Z,49.79
2018-10-05T10:33:48.500Z,49.33
2018-10-05T10:36:17.109Z,49.51
2018-10-05T10:38:45.605Z,49.06
2018-10-05T10:41:15.999Z,48.44
2018-10-05T10:43:44.791Z,48.04
2018-10-05T10:46:13.601Z,47.63
2018-10-05T10:48:42.714Z,50.15
2018-10-05T10:51:11.732Z,48.64
2018-10-05T10:53:41.340Z,47.50
2018-10-05T10:56:10.183Z,47.57
2018-10-05T10:58:39.833Z,47.17
2018-10-05T11:01:09.113Z,47.72
2018-10-05T11:03:38.270Z,46.80
2018-10-05T11:06:07.475Z,46.34
2018-10-05T11:08:36.232Z,46.33
2018-10-05T11:11:05.699Z,45.83
2018-10-05T11:13:34.402Z,46.79
2018-10-05T11:16:02.854Z,46.89
2018-10-05T11:18:32.006Z,46.34
2018-10-05T11:21:01.393Z,46.78
2018-10-05T11:23:30.769Z,45.87
2018-10-05T11:25:59.666Z,46.04
2018-10-05T11:28:28.359Z,45.59
2018-10-05T11:30:57.963Z,44.18
2018-10-05T11:33:26.856Z,43.02
2018-10-05T11:35:56.032Z,41.58
2018-10-05T11:38:25.078Z,41.46
2018-10-05T11:40:54.259Z,40.80
2018-10-05T11:43:24.143Z,39.84
2018-10-05T11:45:53.796Z,41.17
2018-10-05T11:48:22.589Z,39.52
2018-10-05T11:50:51.837Z,40.40
2018-10-05T11:53:21.345Z,41.17
2018-10-05T11:55:51.092Z,39.31
2018-10-05T11:58:20.127Z,38.59
2018-10-05T12:00:49.251Z,38.41
2018-10-05T12:03:18.017Z,38.72
2018-10-05T12:05:47.089Z,40.08
2018-10-05T12:08:16.551Z,41.38
2018-10-05T12:10:45.937Z,39.46
2018-10-05T12:13:15.045Z,38.42
2018-10-05T12:15:44.597Z,36.62
2018-10-05T12:18:13.696Z,36.11
2018-10-05T12:20:43.216Z,35.89
2018-10-05T12:23:12.391Z,35.26
2018-10-05T12:25:41.739Z,33.38
2018-10-05T12:28:10.753Z,32.63
2018-10-05T12:30:40.064Z,32.90
2018-10-05T12:33:08.940Z,32.33
2018-10-05T12:35:38.068Z,32.26
2018-10-05T12:38:07.898Z,31.82
2018-10-05T12:40:36.602Z,31.18
2018-10-05T12:43:05.709Z,31.75
2018-10-05T12:45:35.588Z,31.96
2018-10-05T12:48:04.751Z,32.18
2018-10-05T12:50:34.000Z,31.48
2018-10-05T12:53:03.451Z,32.40
2018-10-05T12:55:32.732Z,32.11
2018-10-05T12:58:01.991Z,31.42
2018-10-05T13:00:31.305Z,32.03
2018-10-05T13:02:59.773Z,31.80
2018-10-05T13:05:28.746Z,32.13
2018-10-05T13:07:58.105Z,31.04
2018-10-05T13:10:27.848Z,32.32
2018-10-05T13:12:56.426Z,32.07
2018-10-05T13:15:25.206Z,31.53
2018-10-05T13:17:55.653Z,31.56
2018-10-05T13:20:24.589Z,32.36
2018-10-05T13:22:54.064Z,32.45
2018-10-05T13:25:23.316Z,31.73
2018-10-05T13:27:52.742Z,32.34
2018-10-05T13:30:21.913Z,32.00
2018-10-05T13:32:51.796Z,31.34
2018-10-05T13:35:20.904Z,31.13
2018-10-05T13:37:50.209Z,30.79
2018-10-05T13:40:19.492Z,30.59
2018-10-05T13:42:48.400Z,31.33
2018-10-05T13:45:18.048Z,30.97
2018-10-05T13:47:47.094Z,30.84
2018-10-05T13:50:16.597Z,30.10
2018-10-05T13:52:46.331Z,29.62
2018-10-05T13:55:15.056Z,30.02
2018-10-05T13:57:43.977Z,29.19
2018-10-05T14:00:13.664Z,29.01
2018-10-05T14:02:42.798Z,29.56
2018-10-05T14:05:12.619Z,28.59
2018-10-05T14:07:41.752Z,28.27
2018-10-05T14:10:11.503Z,28.18
2018-10-05T14:12:41.321Z,27.90
2018-10-05T14:15:10.900Z,27.31
2018-10-05T14:17:40.215Z,27.04
2018-10-05T14:20:10.069Z,27.79
2018-10-05T14:22:39.479Z,27.26
2018-10-05T14:25:08.451Z,27.52
2018-10-05T14:27:37.789Z,27.15
2018-10-05T14:30:07.716Z,26.96
2018-10-05T14:32:37.620Z,26.41
2018-10-05T14:35:07.439Z,25.86
2018-10-05T14:37:37.092Z,25.80
2018-10-05T14:40:06.342Z,25.92
2018-10-05T14:42:36.087Z,26.18
2018-10-05T14:45:05.115Z,26.28
2018-10-05T14:47:34.390Z,26.31
2018-10-05T14:50:03.222Z,25.65
2018-10-05T14:52:33.178Z,23.99
2018-10-05T14:55:02.394Z,23.47
2018-10-05T14:57:33.315Z,23.39
2018-10-05T15:00:02.264Z,22.32
2018-10-05T15:02:31.234Z,22.05
2018-10-05T15:05:01.198Z,24.16
2018-10-05T15:07:30.770Z,23.66
2018-10-05T15:10:00.287Z,23.46
2018-10-05T15:12:29.330Z,23.32
2018-10-05T15:14:59.385Z,23.28
2018-10-05T15:17:29.080Z,23.84
2018-10-05T15:19:59.063Z,24.37
2018-10-05T15:22:28.927Z,23.95
2018-10-05T15:24:58.071Z,23.38
2018-10-05T15:27:27.145Z,24.18
2018-10-05T15:29:56.741Z,23.60
2018-10-05T15:32:25.613Z,23.75
2018-10-05T15:34:54.840Z,23.51
2018-10-05T15:37:25.261Z,23.65
2018-10-05T15:39:54.245Z,23.34
2018-10-05T15:42:23.738Z,23.30
2018-10-05T15:44:53.101Z,22.85
2018-10-05T15:47:22.734Z,23.10
2018-10-05T15:49:52.603Z,23.83
2018-10-05T15:52:22.457Z,23.55
2018-10-05T15:54:51.922Z,24.54
2018-10-05T15:57:21.720Z,24.25
2018-10-05T15:59:51.021Z,24.29
2018-10-05T16:02:21.658Z,24.31
2018-10-05T16:04:51.961Z,25.29
2018-10-05T16:07:21.577Z,26.03
2018-10-05T16:09:51.193Z,25.53
2018-10-05T16:12:19.702Z,26.22
2018-10-05T16:14:49.132Z,26.72
2018-10-05T16:17:18.284Z,27.08
2018-10-05T16:19:47.785Z,27.13
2018-10-05T16:22:17.478Z,27.67
2018-10-05T16:24:47.057Z,28.81
2018-10-05T16:27:17.148Z,28.95
2018-10-05T16:29:46.959Z,30.37
2018-10-05T16:32:16.405Z,30.47
2018-10-05T16:34:45.917Z,31.13
2018-10-05T16:37:15.447Z,32.48
2018-10-05T16:39:44.295Z,34.03
2018-10-05T16:42:14.274Z,35.15
2018-10-05T16:44:43.512Z,35.78
2018-10-05T16:47:12.152Z,36.29
2018-10-05T16:49:41.794Z,36.35
2018-10-05T16:52:11.608Z,37.19
2018-10-05T16:54:40.414Z,37.91
2018-10-05T16:57:10.288Z,38.60
2018-10-05T16:59:41.983Z,40.01
2018-10-05T17:02:12.517Z,40.49
2018-10-05T17:04:41.122Z,40.37
2018-10-05T17:07:10.676Z,41.36
2018-10-05T17:09:40.942Z,41.87
2018-10-05T17:12:10.595Z,42.89
2018-10-05T17:14:39.721Z,43.02
2018-10-05T17:17:09.076Z,43.67
2018-10-05T17:19:38.575Z,44.74
2018-10-05T17:22:08.097Z,45.61
2018-10-05T17:24:36.938Z,46.14
2018-10-05T17:27:06.068Z,46.91
2018-10-05T17:29:35.482Z,46.79
2018-10-05T17:32:05.860Z,47.29
2018-10-05T17:34:35.214Z,47.35
2018-10-05T17:37:04.029Z,47.36
2018-10-05T17:39:33.850Z,48.22
2018-10-05T17:42:02.513Z,48.93
2018-10-05T17:44:31.212Z,49.39
2018-10-05T17:47:00.050Z,50.04
2018-10-05T17:49:29.408Z,50.56
2018-10-05T17:51:58.178Z,51.05
2018-10-05T17:54:28.873Z,51.14
2018-10-05T17:56:58.654Z,50.39
2018-10-05T17:59:27.117Z,50.54
2018-10-05T18:01:57.519Z,50.81
2018-10-05T18:04:26.735Z,51.07
2018-10-05T18:06:56.832Z,51.27
2018-10-05T18:09:25.991Z,51.54
2018-10-05T18:11:54.919Z,52.04
2018-10-05T18:14:24.653Z,52.67
2018-10-05T18:16:53.457Z,52.98
2018-10-05T18:19:22.101Z,52.90
2018-10-05T18:21:50.937Z,53.16
2018-10-05T18:24:20.318Z,53.35
2018-10-05T18:26:49.200Z,53.68
2018-10-05T18:29:18.589Z,54.05
2018-10-05T18:31:47.492Z,54.71
2018-10-05T18:34:16.668Z,54.44
2018-10-05T18:36:46.101Z,54.60
2018-10-05T18:39:15.849Z,55.03
2018-10-05T18:41:44.897Z,54.61
2018-10-05T18:44:13.738Z,54.75
2018-10-05T18:46:43.644Z,55.41
2018-10-05T18:49:12.291Z,56.61
2018-10-05T18:51:42.353Z,56.63
2018-10-05T18:54:11.430Z,56.23
2018-10-05T18:56:51.669Z,56.90
2018-10-05T18:59:22.670Z,56.92
2018-10-05T19:01:51.985Z,57.70
2018-10-05T19:04:22.434Z,57.99
2018-10-05T19:06:52.691Z,57.73
2018-10-05T19:09:22.492Z,57.66
2018-10-05T19:11:51.528Z,57.97
2018-10-05T19:14:20.252Z,58.21
2018-10-05T19:16:50.509Z,58.87
2018-10-05T19:19:21.096Z,59.19
2018-10-05T19:21:50.877Z,59.21
2018-10-05T19:24:19.806Z,59.67
2018-10-05T19:26:49.799Z,60.30
2018-10-05T19:29:19.122Z,59.53
2018-10-05T19:31:49.144Z,59.71
2018-10-05T19:34:19.264Z,59.87
2018-10-05T19:36:48.651Z,60.11
2018-10-05T19:39:17.737Z,60.14
2018-10-05T19:41:47.565Z,59.93
2018-10-05T19:44:18.085Z,59.72
2018-10-05T19:46:47.383Z,60.67
2018-10-05T19:49:17.232Z,60.50
2018-10-05T19:51:47.253Z,60.13
2018-10-05T19:54:16.135Z,60.32
2018-10-05T19:56:45.529Z,60.60
2018-10-05T19:59:14.700Z,60.85
2018-10-05T20:01:43.224Z,61.00
2018-10-05T20:04:13.083Z,62.01
2018-10-05T20:06:42.296Z,63.06
2018-10-05T20:09:11.401Z,62.44
2018-10-05T20:11:41.209Z,63.19
2018-10-05T20:14:10.125Z,63.45
2018-10-05T20:16:39.762Z,63.26
2018-10-05T20:19:08.642Z,64.12
2018-10-05T20:21:38.352Z,64.42
2018-10-05T20:24:07.923Z,64.67
2018-10-05T20:26:37.720Z,64.24
2018-10-05T20:29:06.274Z,64.46
2018-10-05T20:31:35.875Z,63.84
2018-10-05T20:34:04.693Z,64.34
2018-10-05T20:36:34.959Z,64.72
2018-10-05T20:39:06.080Z,65.02
2018-10-05T20:41:34.979Z,64.62
2018-10-05T20:44:05.158Z,64.82
2018-10-05T20:46:34.413Z,65.56
2018-10-05T20:49:03.506Z,66.27
2018-10-05T20:51:32.675Z,66.10
2018-10-05T20:54:02.272Z,66.36
2018-10-05T20:56:31.292Z,66.11
2018-10-05T20:59:00.141Z,66.65
2018-10-05T21:01:29.498Z,67.34
2018-10-05T21:03:59.396Z,68.95
2018-10-05T21:06:28.432Z,68.35
2018-10-05T21:08:58.650Z,67.63
2018-10-05T21:11:27.847Z,67.81
2018-10-05T21:13:57.615Z,67.45
2018-10-05T21:16:27.365Z,66.91
2018-10-05T21:18:56.472Z,67.48
2018-10-05T21:21:26.419Z,67.00
2018-10-05T21:23:55.956Z,67.17
2018-10-05T21:26:25.701Z,66.64
2018-10-05T21:28:54.839Z,66.76
2018-10-05T21:31:24.664Z,66.42
2018-10-05T21:33:55.106Z,66.77
2018-10-05T21:36:25.375Z,66.75
2018-10-05T21:38:55.384Z,67.01
2018-10-05T21:41:24.973Z,67.28
2018-10-05T21:43:54.049Z,67.83
2018-10-05T21:46:23.644Z,67.70
2018-10-05T21:48:52.408Z,67.28
2018-10-05T21:51:21.407Z,66.85
2018-10-05T21:53:50.067Z,66.81
2018-10-05T21:56:19.131Z,66.55
2018-10-05T21:58:47.934Z,66.82
2018-10-05T22:01:17.643Z,66.69
2018-10-05T22:03:46.988Z,67.30
2018-10-05T22:06:17.083Z,67.77
2018-10-05T22:08:46.284Z,68.04
2018-10-05T22:11:16.028Z,67.86
2018-10-05T22:13:45.048Z,67.88
2018-10-05T22:16:15.417Z,68.67
2018-10-05T22:18:44.663Z,68.78
2018-10-05T22:21:13.720Z,69.44
2018-10-05T22:23:43.439Z,70.14
2018-10-05T22:26:12.832Z,71.19
2018-10-05T22:28:42.097Z,70.86
2018-10-05T22:31:11.804Z,71.00
2018-10-05T22:33:40.972Z,70.37
2018-10-05T22:36:09.909Z,70.97
2018-10-05T22:38:39.225Z,71.92
2018-10-05T22:41:08.292Z,72.15
2018-10-05T22:43:38.641Z,72.58
2018-10-05T22:46:07.699Z,73.40
2018-10-05T22:48:36.833Z,73.52
2018-10-05T22:51:06.216Z,73.91
2018-10-05T22:53:35.754Z,73.09
2018-10-05T22:56:05.716Z,71.81
2018-10-05T22:58:35.007Z,71.38
2018-10-05T23:01:04.575Z,71.11
2018-10-05T23:03:33.848Z,71.02
2018-10-05T23:06:02.980Z,71.45
2018-10-05T23:08:32.782Z,71.37
2018-10-05T23:11:02.256Z,70.97
2018-10-05T23:13:31.405Z,70.73
2018-10-05T23:16:01.117Z,71.18
2018-10-05T23:18:31.334Z,72.92
2018-10-05T23:21:00.537Z,74.29
2018-10-05T23:23:30.355Z,74.97
2018-10-05T23:25:59.880Z,74.44
2018-10-05T23:28:29.005Z,75.30
2018-10-05T23:30:59.230Z,75.73
2018-10-05T23:33:28.542Z,75.80
2018-10-05T23:35:57.621Z,75.43
2018-10-05T23:38:27.472Z,75.55
2018-10-05T23:40:56.881Z,75.18
2018-10-05T23:43:26.558Z,74.47
2018-10-05T23:45:56.543Z,74.36
2018-10-05T23:48:25.522Z,73.67
2018-10-05T23:50:54.769Z,74.67
2018-10-05T23:53:24.185Z,73.93
2018-10-05T23:55:54.468Z,73.34
2018-10-05T23:58:23.233Z,72.16
